createdAt,value
2022-10-17T00:01:21.730Z,15.59
2022-10-17T00:03:53.412Z,15.61
2022-10-17T00:06:25.132Z,15.63
2022-10-17T00:08:56.827Z,15.66
2022-10-17T00:11:28.679Z,15.67
2022-10-17T00:14:00.510Z,15.61
2022-10-17T00:16:36.846Z,15.54
2022-10-17T00:19:10.058Z,15.66
2022-10-17T00:21:42.264Z,15.68
2022-10-17T00:24:13.920Z,15.74
2022-10-17T00:26:45.947Z,15.78
2022-10-17T00:29:17.718Z,15.83
2022-10-17T00:31:55.057Z,15.85
2022-10-17T00:34:30.249Z,15.75
2022-10-17T00:37:02.099Z,15.63
2022-10-17T00:39:33.657Z,15.64
2022-10-17T00:42:05.502Z,15.66
2022-10-17T00:45:00.906Z,15.63
2022-10-17T00:47:34.471Z,15.58
2022-10-17T00:50:09.426Z,15.61
2022-10-17T00:52:42.459Z,15.67
2022-10-17T00:55:18.546Z,15.67
2022-10-17T00:57:50.760Z,15.66
2022-10-17T01:00:24.960Z,15.63
2022-10-17T01:02:55.104Z,15.63
2022-10-17T01:05:27.136Z,15.66
2022-10-17T01:08:00.646Z,15.69
2022-10-17T01:10:38.833Z,15.68
2022-10-17T01:13:16.224Z,15.48
2022-10-17T01:16:00.270Z,15.43
2022-10-17T01:18:46.385Z,15.42
2022-10-17T01:21:39.372Z,15.53
2022-10-17T01:24:30.056Z,15.65
2022-10-17T01:27:19.222Z,15.64
2022-10-17T01:30:05.694Z,15.55
2022-10-17T01:32:41.578Z,15.67
2022-10-17T01:35:21.526Z,15.77
2022-10-17T01:38:02.829Z,15.83
2022-10-17T01:40:40.576Z,15.89
2022-10-17T01:43:20.702Z,15.93
2022-10-17T01:46:02.626Z,15.93
2022-10-17T01:48:38.909Z,15.93
2022-10-17T01:51:17.290Z,15.97
2022-10-17T01:53:54.298Z,15.99
2022-10-17T01:56:29.383Z,15.95
2022-10-17T01:59:05.542Z,15.93
2022-10-17T02:01:39.162Z,15.88
2022-10-17T02:04:12.631Z,15.80
2022-10-17T02:06:44.220Z,15.64
2022-10-17T02:09:26.373Z,15.53
2022-10-17T02:12:21.765Z,15.43
2022-10-17T02:15:09.202Z,15.49
2022-10-17T02:17:54.061Z,15.64
2022-10-17T02:20:32.443Z,15.76
2022-10-17T02:23:13.414Z,15.83
2022-10-17T02:25:54.662Z,15.86
2022-10-17T02:28:35.802Z,15.90
2022-10-17T02:31:15.549Z,15.89
2022-10-17T02:33:56.517Z,15.89
2022-10-17T02:36:33.398Z,15.91
2022-10-17T02:39:07.654Z,15.90
2022-10-17T02:41:41.502Z,15.95
2022-10-17T02:44:13.579Z,15.98
2022-10-17T02:46:53.246Z,15.98
2022-10-17T02:49:28.718Z,15.90
2022-10-17T02:52:07.938Z,15.85
2022-10-17T02:54:44.398Z,15.83
2022-10-17T02:57:23.120Z,15.87
2022-10-17T02:59:56.005Z,15.83
2022-10-17T03:02:28.734Z,15.77
2022-10-17T03:05:01.298Z,15.70
2022-10-17T03:07:33.060Z,15.72
2022-10-17T03:10:07.224Z,15.66
2022-10-17T03:12:39.582Z,15.58
2022-10-17T03:15:15.003Z,15.55
2022-10-17T03:17:47.243Z,15.46
2022-10-17T03:20:19.970Z,15.46
2022-10-17T03:22:51.960Z,15.45
2022-10-17T03:25:24.128Z,15.50
2022-10-17T03:27:56.535Z,15.48
2022-10-17T03:30:29.328Z,15.48
2022-10-17T03:33:01.926Z,15.36
2022-10-17T03:35:33.734Z,15.27
2022-10-17T03:38:05.628Z,15.25
2022-10-17T03:40:37.417Z,15.34
2022-10-17T03:43:11.350Z,15.25
2022-10-17T03:45:44.468Z,15.18
2022-10-17T03:48:16.065Z,15.23
2022-10-17T03:50:47.708Z,15.28
2022-10-17T03:53:19.479Z,15.30
2022-10-17T03:55:52.005Z,15.21
2022-10-17T03:58:23.656Z,15.20
2022-10-17T04:00:56.191Z,15.26
2022-10-17T04:03:27.817Z,15.25
2022-10-17T04:06:02.861Z,15.20
2022-10-17T04:08:36.858Z,15.13
2022-10-17T04:11:18.655Z,15.13
2022-10-17T04:13:55.900Z,15.02
2022-10-17T04:16:28.112Z,15.00
2022-10-17T04:19:08.481Z,14.95
2022-10-17T04:21:44.070Z,14.88
2022-10-17T04:24:16.379Z,14.95
2022-10-17T04:27:23.338Z,15.04
2022-10-17T04:29:55.075Z,15.07
2022-10-17T04:32:29.274Z,15.09
2022-10-17T04:35:12.157Z,15.09
2022-10-17T04:37:46.139Z,15.09
2022-10-17T04:40:22.845Z,15.09
2022-10-17T04:42:56.051Z,15.06
2022-10-17T04:45:33.220Z,15.00
2022-10-17T04:48:07.422Z,14.94
2022-10-17T04:50:39.455Z,14.91
2022-10-17T04:53:32.191Z,14.81
2022-10-17T04:56:09.063Z,14.79
2022-10-17T04:58:41.812Z,14.72
2022-10-17T05:01:16.468Z,14.74
2022-10-17T05:03:49.827Z,14.73
2022-10-17T05:06:23.769Z,14.69
2022-10-17T05:09:21.622Z,14.80
2022-10-17T05:11:53.600Z,14.75
2022-10-17T05:14:25.302Z,14.67
2022-10-17T05:16:57.418Z,14.66
2022-10-17T05:19:29.268Z,14.58
2022-10-17T05:22:00.853Z,14.56
2022-10-17T05:24:32.088Z,14.57
2022-10-17T05:27:04.135Z,14.52
2022-10-17T05:29:36.810Z,14.53
2022-10-17T05:32:15.754Z,14.60
2022-10-17T05:34:48.072Z,14.62
2022-10-17T05:37:20.729Z,14.56
2022-10-17T05:39:55.258Z,14.59
2022-10-17T05:42:27.276Z,14.61
2022-10-17T05:44:59.493Z,14.58
2022-10-17T05:47:31.748Z,14.61
2022-10-17T05:50:03.665Z,14.54
2022-10-17T05:52:46.388Z,14.60
2022-10-17T05:55:20.545Z,14.67
2022-10-17T05:57:52.666Z,14.67
2022-10-17T06:00:25.060Z,14.74
2022-10-17T06:03:01.264Z,14.77
2022-10-17T06:05:33.104Z,14.80
2022-10-17T06:08:04.803Z,14.82
2022-10-17T06:10:39.605Z,14.83
2022-10-17T06:13:11.888Z,14.89
2022-10-17T06:15:43.756Z,14.97
2022-10-17T06:18:15.421Z,14.99
2022-10-17T06:20:47.339Z,14.98
2022-10-17T06:23:21.132Z,14.96
2022-10-17T06:26:13.528Z,14.99
2022-10-17T06:28:45.608Z,15.04
2022-10-17T06:31:18.659Z,15.07
2022-10-17T06:33:50.572Z,15.11
2022-10-17T06:36:22.870Z,15.07
2022-10-17T06:38:55.620Z,15.01
2022-10-17T06:41:37.369Z,14.99
2022-10-17T06:44:13.162Z,15.08
2022-10-17T06:47:01.569Z,15.12
2022-10-17T06:49:34.251Z,15.17
2022-10-17T06:52:23.279Z,15.15
2022-10-17T06:55:18.089Z,15.09
2022-10-17T06:58:10.042Z,15.12
2022-10-17T07:01:13.751Z,15.08
2022-10-17T07:03:48.713Z,15.13
2022-10-17T07:06:24.766Z,15.17
2022-10-17T07:08:57.071Z,15.19
2022-10-17T07:11:29.182Z,15.19
2022-10-17T07:14:00.872Z,15.27
2022-10-17T07:16:33.161Z,15.30
2022-10-17T07:19:11.334Z,15.37
2022-10-17T07:21:44.298Z,15.48
2022-10-17T07:24:15.770Z,15.56
2022-10-17T07:26:52.043Z,15.64
2022-10-17T07:29:24.433Z,15.67
2022-10-17T07:32:25.525Z,15.76
2022-10-17T07:34:57.718Z,15.79
2022-10-17T07:37:30.393Z,15.86
2022-10-17T07:40:04.245Z,15.91
2022-10-17T07:42:40.655Z,15.92
2022-10-17T07:45:13.180Z,15.99
2022-10-17T07:47:43.757Z,16.00
2022-10-17T07:50:18.523Z,16.07
2022-10-17T07:52:50.775Z,16.10
2022-10-17T07:55:22.759Z,16.17
2022-10-17T07:57:54.413Z,16.20
2022-10-17T08:00:26.345Z,16.27
2022-10-17T08:02:58.234Z,16.31
2022-10-17T08:05:30.286Z,16.34
2022-10-17T08:08:02.276Z,16.42
2022-10-17T08:10:34.277Z,16.47
2022-10-17T08:13:06.387Z,16.48
2022-10-17T08:15:40.205Z,16.55
2022-10-17T08:18:13.821Z,16.59
2022-10-17T08:20:45.911Z,16.61
2022-10-17T08:23:17.990Z,16.61
2022-10-17T08:25:50.015Z,16.58
2022-10-17T08:28:22.188Z,16.63
2022-10-17T08:30:54.434Z,16.73
2022-10-17T08:33:26.446Z,16.85
2022-10-17T08:35:59.185Z,16.91
2022-10-17T08:38:35.385Z,16.99
2022-10-17T08:41:14.619Z,17.02
2022-10-17T08:43:59.938Z,17.08
2022-10-17T08:46:36.696Z,17.13
2022-10-17T08:49:17.638Z,17.19
2022-10-17T08:51:54.112Z,17.32
2022-10-17T08:54:33.133Z,17.43
2022-10-17T08:57:05.211Z,17.54
2022-10-17T08:59:37.598Z,17.61
2022-10-17T09:02:34.378Z,17.73
2022-10-17T09:05:32.691Z,17.80
2022-10-17T09:08:13.939Z,17.94
2022-10-17T09:10:57.161Z,18.01
2022-10-17T09:13:41.913Z,18.09
2022-10-17T09:16:45.571Z,18.18
2022-10-17T09:19:22.523Z,18.26
2022-10-17T09:21:58.630Z,18.36
2022-10-17T09:24:40.141Z,18.52
2022-10-17T09:27:24.329Z,18.67
2022-10-17T09:30:04.683Z,18.85
2022-10-17T09:32:41.046Z,19.02
2022-10-17T09:35:16.541Z,19.21
2022-10-17T09:37:49.533Z,19.37
2022-10-17T09:40:26.293Z,19.55
2022-10-17T09:42:58.605Z,19.66
2022-10-17T09:45:37.603Z,19.83
2022-10-17T09:48:20.266Z,19.93
2022-10-17T09:51:02.624Z,20.04
2022-10-17T09:53:50.557Z,20.19
2022-10-17T09:56:22.662Z,20.29
2022-10-17T09:58:58.116Z,20.40
2022-10-17T10:01:32.149Z,20.57
2022-10-17T10:04:15.162Z,20.64
2022-10-17T10:07:04.412Z,20.74
2022-10-17T10:09:39.646Z,20.78
2022-10-17T10:12:21.221Z,20.98
2022-10-17T10:14:54.782Z,21.05
2022-10-17T10:17:41.756Z,21.18
2022-10-17T10:20:33.501Z,21.47
2022-10-17T10:23:13.784Z,21.59
2022-10-17T10:26:00.544Z,21.73
2022-10-17T10:28:35.385Z,21.82
2022-10-17T10:31:09.754Z,21.90
2022-10-17T10:33:49.471Z,21.98
2022-10-17T10:36:23.156Z,22.09
2022-10-17T10:38:56.220Z,22.21
2022-10-17T10:41:28.570Z,22.30
2022-10-17T10:44:00.380Z,22.46
2022-10-17T10:46:32.137Z,22.59
2022-10-17T10:49:04.581Z,22.64
2022-10-17T10:51:36.431Z,22.79
2022-10-17T10:54:17.466Z,22.83
2022-10-17T10:56:53.515Z,22.91
2022-10-17T10:59:31.634Z,23.07
2022-10-17T11:02:13.733Z,23.14
2022-10-17T11:04:51.222Z,23.18
2022-10-17T11:07:29.469Z,23.30
2022-10-17T11:10:12.163Z,23.41
2022-10-17T11:12:47.569Z,23.45
2022-10-17T11:15:26.411Z,23.51
2022-10-17T11:18:03.293Z,23.57
2022-10-17T11:20:42.910Z,23.57
2022-10-17T11:23:21.744Z,23.67
2022-10-17T11:25:55.644Z,23.73
2022-10-17T11:28:27.657Z,23.78
2022-10-17T11:31:07.239Z,23.85
2022-10-17T11:33:46.683Z,23.94
2022-10-17T11:36:23.149Z,24.18
2022-10-17T11:38:58.001Z,24.28
2022-10-17T11:41:36.251Z,24.34
2022-10-17T11:44:16.685Z,24.41
2022-10-17T11:46:53.545Z,24.48
2022-10-17T11:49:29.713Z,24.51
2022-10-17T11:52:37.434Z,24.49
2022-10-17T11:55:18.391Z,24.51
2022-10-17T11:58:08.753Z,24.62
2022-10-17T12:00:51.223Z,24.65
2022-10-17T12:03:46.782Z,24.74
2022-10-17T12:06:29.677Z,24.69
2022-10-17T12:09:08.645Z,24.70
2022-10-17T12:11:53.917Z,24.82
2022-10-17T12:14:41.320Z,24.86
2022-10-17T12:17:39.293Z,24.88
2022-10-17T12:20:39.854Z,24.94
2022-10-17T12:23:30.816Z,25.01
2022-10-17T12:26:05.681Z,24.99
2022-10-17T12:28:44.752Z,25.06
2022-10-17T12:31:33.432Z,24.97
2022-10-17T12:34:06.722Z,24.81
2022-10-17T12:36:40.340Z,24.79
2022-10-17T12:39:49.366Z,24.86
2022-10-17T12:42:46.634Z,24.94
2022-10-17T12:45:49.685Z,25.11
2022-10-17T12:48:37.176Z,25.21
2022-10-17T12:54:10.070Z,25.28
2022-10-17T12:56:44.386Z,25.26
2022-10-17T12:59:21.684Z,25.29
2022-10-17T13:01:57.362Z,25.40
2022-10-17T13:04:30.752Z,25.27
2022-10-17T13:07:02.688Z,25.04
2022-10-17T13:09:37.808Z,24.91
2022-10-17T13:12:15.599Z,24.78
2022-10-17T13:14:51.533Z,24.69
2022-10-17T13:17:29.681Z,24.56
2022-10-17T13:20:02.070Z,24.52
2022-10-17T13:22:33.597Z,24.40
2022-10-17T13:25:17.932Z,24.36
2022-10-17T13:27:50.646Z,24.38
2022-10-17T13:30:32.110Z,24.58
2022-10-17T13:33:17.196Z,24.75
2022-10-17T13:36:05.916Z,24.87
2022-10-17T13:38:41.713Z,24.82
2022-10-17T13:41:38.214Z,24.75
2022-10-17T13:44:16.896Z,24.75
2022-10-17T13:46:49.253Z,24.77
2022-10-17T13:49:26.085Z,24.73
2022-10-17T13:52:02.437Z,24.66
2022-10-17T13:54:41.359Z,24.62
2022-10-17T13:57:24.832Z,24.65
2022-10-17T13:59:59.436Z,24.64
2022-10-17T14:02:33.860Z,24.53
2022-10-17T14:05:17.112Z,24.46
2022-10-17T14:08:13.056Z,24.45
2022-10-17T14:10:47.170Z,24.41
2022-10-17T14:13:23.877Z,24.32
2022-10-17T14:15:59.029Z,24.30
2022-10-17T14:18:36.581Z,24.27
2022-10-17T14:24:28.340Z,24.09
2022-10-17T14:27:01.431Z,24.07
2022-10-17T14:29:51.954Z,24.03
2022-10-17T14:32:25.073Z,23.96
2022-10-17T14:35:17.883Z,23.90
2022-10-17T14:37:52.969Z,23.81
2022-10-17T14:40:27.407Z,23.74
2022-10-17T14:43:02.100Z,23.69
2022-10-17T14:45:36.176Z,23.67
2022-10-17T14:48:15.524Z,23.63
2022-10-17T14:51:11.854Z,23.59
2022-10-17T14:53:45.153Z,23.53
2022-10-17T14:56:26.688Z,23.49
2022-10-17T14:58:59.012Z,23.39
2022-10-17T15:01:31.269Z,23.34
2022-10-17T15:04:02.893Z,23.26
2022-10-17T15:06:35.935Z,23.18
2022-10-17T15:09:08.436Z,23.11
2022-10-17T15:11:39.149Z,23.11
2022-10-17T15:14:10.849Z,23.03
2022-10-17T15:16:42.625Z,22.95
2022-10-17T15:19:15.012Z,22.88
2022-10-17T15:21:47.441Z,22.85
2022-10-17T15:24:19.422Z,22.79
2022-10-17T15:26:51.420Z,22.71
2022-10-17T15:29:23.578Z,22.65
2022-10-17T15:31:55.220Z,22.61
2022-10-17T15:34:26.959Z,22.54
2022-10-17T15:36:58.791Z,22.49
2022-10-17T15:39:30.354Z,22.45
2022-10-17T15:42:01.938Z,22.38
2022-10-17T15:44:33.662Z,22.34
2022-10-17T15:47:05.590Z,22.26
2022-10-17T15:49:36.367Z,22.24
2022-10-17T15:52:09.701Z,22.17
2022-10-17T15:54:41.448Z,22.13
2022-10-17T15:57:17.348Z,22.08
2022-10-17T15:59:50.400Z,22.01
2022-10-17T16:02:24.244Z,21.97
2022-10-17T16:04:56.130Z,21.92
2022-10-17T16:07:28.208Z,21.87
2022-10-17T16:10:00.159Z,21.78
2022-10-17T16:12:36.959Z,21.74
2022-10-17T16:15:14.070Z,21.68
2022-10-17T16:17:45.854Z,21.64
2022-10-17T16:20:17.580Z,21.60
2022-10-17T16:22:50.469Z,21.55
2022-10-17T16:25:24.186Z,21.50
2022-10-17T16:27:57.584Z,21.47
2022-10-17T16:30:31.705Z,21.41
2022-10-17T16:33:03.616Z,21.38
2022-10-17T16:35:37.918Z,21.33
2022-10-17T16:38:10.248Z,21.29
2022-10-17T16:40:42.188Z,21.23
2022-10-17T16:43:15.084Z,21.20
2022-10-17T16:45:46.705Z,21.15
2022-10-17T16:48:18.359Z,21.13
2022-10-17T16:50:49.991Z,21.10
2022-10-17T16:53:21.630Z,21.06
2022-10-17T16:56:03.211Z,21.03
2022-10-17T16:58:34.981Z,20.99
2022-10-17T17:01:09.601Z,20.97
2022-10-17T17:03:42.918Z,20.93
2022-10-17T17:06:18.993Z,20.86
2022-10-17T17:08:51.569Z,20.79
2022-10-17T17:11:25.090Z,20.77
2022-10-17T17:14:01.715Z,20.66
2022-10-17T17:16:35.843Z,20.64
2022-10-17T17:19:11.148Z,20.56
2022-10-17T17:21:47.717Z,20.49
2022-10-17T17:24:21.859Z,20.42
2022-10-17T17:26:56.173Z,20.42
2022-10-17T17:29:28.014Z,20.40
2022-10-17T17:31:59.730Z,20.31
2022-10-17T17:34:32.344Z,20.22
2022-10-17T17:37:02.583Z,20.20
2022-10-17T17:39:34.521Z,20.15
2022-10-17T17:42:06.284Z,20.14
2022-10-17T17:44:38.100Z,20.10
2022-10-17T17:47:09.981Z,20.11
2022-10-17T17:49:41.839Z,20.09
2022-10-17T17:52:13.871Z,20.06
2022-10-17T17:54:46.921Z,20.06
2022-10-17T17:57:19.017Z,20.05
2022-10-17T17:59:52.327Z,20.03
2022-10-17T18:02:24.379Z,20.02
2022-10-17T18:04:57.248Z,19.99
2022-10-17T18:07:30.645Z,19.99
2022-10-17T18:10:06.507Z,19.96
2022-10-17T18:12:39.743Z,19.95
2022-10-17T18:15:12.548Z,19.92
2022-10-17T18:17:42.782Z,19.90
2022-10-17T18:20:15.003Z,19.87
2022-10-17T18:22:46.812Z,19.84
2022-10-17T18:25:19.012Z,19.82
2022-10-17T18:27:52.366Z,19.80
2022-10-17T18:30:27.209Z,19.78
2022-10-17T18:33:01.005Z,19.74
2022-10-17T18:35:35.378Z,19.70
2022-10-17T18:38:09.453Z,19.69
2022-10-17T18:40:41.159Z,19.67
2022-10-17T18:43:12.849Z,19.64
2022-10-17T18:45:44.573Z,19.61
2022-10-17T18:48:16.212Z,19.60
2022-10-17T18:50:47.932Z,19.58
2022-10-17T18:53:19.719Z,19.55
2022-10-17T18:55:53.539Z,19.55
2022-10-17T18:58:25.711Z,19.49
2022-10-17T19:01:02.248Z,19.44
2022-10-17T19:03:34.595Z,19.40
2022-10-17T19:06:08.637Z,19.37
2022-10-17T19:08:41.919Z,19.34
2022-10-17T19:11:16.190Z,19.31
2022-10-17T19:13:48.542Z,19.31
2022-10-17T19:16:23.686Z,19.30
2022-10-17T19:18:58.493Z,19.28
2022-10-17T19:21:30.652Z,19.26
2022-10-17T19:24:05.136Z,19.24
2022-10-17T19:26:39.879Z,19.22
2022-10-17T19:29:13.517Z,19.18
2022-10-17T19:31:45.830Z,19.18
2022-10-17T19:34:18.638Z,19.15
2022-10-17T19:36:51.362Z,19.15
2022-10-17T19:39:25.137Z,19.12
2022-10-17T19:41:57.132Z,19.09
2022-10-17T19:44:29.175Z,19.08
2022-10-17T19:47:01.064Z,18.95
2022-10-17T19:49:33.374Z,18.93
2022-10-17T19:52:05.998Z,18.92
2022-10-17T19:54:38.967Z,18.88
2022-10-17T19:57:12.324Z,18.84
2022-10-17T19:59:48.557Z,18.92
2022-10-17T20:02:23.381Z,18.93
2022-10-17T20:05:13.818Z,18.90
2022-10-17T20:07:48.843Z,18.87
2022-10-17T20:10:20.931Z,18.89
2022-10-17T20:12:53.131Z,18.85
2022-10-17T20:15:25.501Z,18.78
2022-10-17T20:17:58.097Z,18.77
2022-10-17T20:20:32.676Z,18.77
2022-10-17T20:23:05.234Z,18.74
2022-10-17T20:25:38.909Z,18.70
2022-10-17T20:28:11.832Z,18.70
2022-10-17T20:30:48.097Z,18.70
2022-10-17T20:33:20.830Z,18.67
2022-10-17T20:35:52.876Z,18.66
2022-10-17T20:38:25.250Z,18.55
2022-10-17T20:41:00.703Z,18.55
2022-10-17T20:43:32.933Z,18.55
2022-10-17T20:46:22.758Z,18.55
2022-10-17T20:48:58.438Z,18.53
2022-10-17T20:51:31.204Z,18.55
2022-10-17T20:54:04.169Z,18.51
2022-10-17T20:56:37.218Z,18.53
2022-10-17T20:59:12.299Z,18.51
2022-10-17T21:01:45.058Z,18.46
2022-10-17T21:07:09.875Z,18.33
2022-10-17T21:09:42.478Z,18.27
2022-10-17T21:12:21.624Z,18.18
2022-10-17T21:15:03.671Z,18.20
2022-10-17T21:17:35.280Z,18.19
2022-10-17T21:20:08.628Z,18.13
2022-10-17T21:22:40.360Z,18.18
2022-10-17T21:25:12.659Z,18.16
2022-10-17T21:27:44.290Z,18.10
2022-10-17T21:30:15.894Z,18.01
2022-10-17T21:32:51.477Z,17.96
2022-10-17T21:35:23.650Z,18.01
2022-10-17T21:37:55.443Z,18.03
2022-10-17T21:40:27.133Z,18.06
2022-10-17T21:42:58.814Z,18.03
2022-10-17T21:45:30.642Z,17.97
2022-10-17T21:48:12.694Z,17.95
2022-10-17T21:50:44.903Z,18.00
2022-10-17T21:53:16.582Z,17.95
2022-10-17T21:55:48.207Z,17.91
2022-10-17T21:58:20.350Z,17.95
2022-10-17T22:00:51.921Z,17.83
2022-10-17T22:03:23.626Z,17.89
2022-10-17T22:06:11.759Z,17.84
2022-10-17T22:08:48.525Z,17.81
2022-10-17T22:11:23.094Z,17.84
2022-10-17T22:13:58.498Z,17.87
2022-10-17T22:16:30.570Z,17.87
2022-10-17T22:19:06.261Z,17.86
2022-10-17T22:21:39.364Z,17.84
2022-10-17T22:24:14.225Z,17.82
2022-10-17T22:26:47.659Z,17.81
2022-10-17T22:29:19.563Z,17.78
2022-10-17T22:31:51.281Z,17.74
2022-10-17T22:34:22.956Z,17.70
2022-10-17T22:36:54.872Z,17.71
2022-10-17T22:39:27.088Z,17.71
2022-10-17T22:41:58.820Z,17.74
2022-10-17T22:44:30.666Z,17.74
2022-10-17T22:47:02.346Z,17.67
2022-10-17T22:49:34.781Z,17.69
2022-10-17T22:52:06.675Z,17.68
2022-10-17T22:54:38.270Z,17.67
2022-10-17T22:57:09.946Z,17.62
2022-10-17T22:59:41.641Z,17.59
2022-10-17T23:02:13.263Z,17.60
2022-10-17T23:04:44.886Z,17.55
2022-10-17T23:07:16.981Z,17.53
2022-10-17T23:09:48.630Z,17.45
2022-10-17T23:12:20.673Z,17.47
2022-10-17T23:14:53.855Z,17.46
2022-10-17T23:17:25.663Z,17.47
2022-10-17T23:19:57.791Z,17.42
2022-10-17T23:22:29.974Z,17.43
2022-10-17T23:25:05.205Z,17.41
2022-10-17T23:27:37.809Z,17.32
2022-10-17T23:30:09.155Z,17.35
2022-10-17T23:32:41.292Z,17.33
2022-10-17T23:35:12.992Z,17.36
2022-10-17T23:37:44.590Z,17.36
2022-10-17T23:40:16.547Z,17.35
2022-10-17T23:42:48.263Z,17.29
2022-10-17T23:45:20.825Z,17.30
2022-10-17T23:47:52.515Z,17.30
2022-10-17T23:50:24.406Z,17.28
2022-10-17T23:52:55.949Z,17.19
2022-10-17T23:55:27.550Z,17.18
2022-10-17T23:57:59.273Z,17.09
